sensor_id;sensor_type;location;lat;lon;timestamp;temperature;humidity
16158;DHT22;8184;60.256;18.694;2023-06-19T00:01:36;16.10;99.90
16158;DHT22;8184;60.256;18.694;2023-06-19T00:04:06;16.00;99.90
16158;DHT22;8184;60.256;18.694;2023-06-19T00:06:34;16.00;99.90
16158;DHT22;8184;60.256;18.694;2023-06-19T00:09:06;16.00;99.90
16158;DHT22;8184;60.256;18.694;2023-06-19T00:11:39;16.00;99.90
16158;DHT22;8184;60.256;18.694;2023-06-19T00:14:09;16.00;99.90
16158;DHT22;8184;60.256;18.694;2023-06-19T00:16:37;16.00;99.90
16158;DHT22;8184;60.256;18.694;2023-06-19T00:19:08;16.00;99.90
16158;DHT22;8184;60.256;18.694;2023-06-19T00:21:37;16.00;99.90
16158;DHT22;8184;60.256;18.694;2023-06-19T00:24:05;16.00;99.90
16158;DHT22;8184;60.256;18.694;2023-06-19T00:26:34;15.90;99.90
16158;DHT22;8184;60.256;18.694;2023-06-19T00:29:02;15.90;99.90
16158;DHT22;8184;60.256;18.694;2023-06-19T00:31:31;15.90;99.90
16158;DHT22;8184;60.256;18.694;2023-06-19T00:33:59;15.90;99.90
16158;DHT22;8184;60.256;18.694;2023-06-19T00:36:29;15.90;99.90
16158;DHT22;8184;60.256;18.694;2023-06-19T00:38:57;15.90;99.90
16158;DHT22;8184;60.256;18.694;2023-06-19T00:41:26;15.90;99.90
16158;DHT22;8184;60.256;18.694;2023-06-19T00:43:57;15.90;99.90
16158;DHT22;8184;60.256;18.694;2023-06-19T00:46:29;15.80;99.90
16158;DHT22;8184;60.256;18.694;2023-06-19T00:48:57;15.80;99.90
16158;DHT22;8184;60.256;18.694;2023-06-19T00:51:26;15.80;99.90
16158;DHT22;8184;60.256;18.694;2023-06-19T00:53:58;15.80;99.90
16158;DHT22;8184;60.256;18.694;2023-06-19T00:56:26;15.70;99.90
16158;DHT22;8184;60.256;18.694;2023-06-19T00:58:56;15.80;99.90
16158;DHT22;8184;60.256;18.694;2023-06-19T01:01:24;15.70;99.90
16158;DHT22;8184;60.256;18.694;2023-06-19T01:03:54;15.70;99.90
16158;DHT22;8184;60.256;18.694;2023-06-19T01:06:23;15.80;99.90
16158;DHT22;8184;60.256;18.694;2023-06-19T01:08:54;15.80;99.90
16158;DHT22;8184;60.256;18.694;2023-06-19T01:11:33;15.70;99.90
16158;DHT22;8184;60.256;18.694;2023-06-19T01:14:18;15.80;99.90
16158;DHT22;8184;60.256;18.694;2023-06-19T01:16:47;15.80;99.90
16158;DHT22;8184;60.256;18.694;2023-06-19T01:19:18;15.70;99.90
16158;DHT22;8184;60.256;18.694;2023-06-19T01:21:46;15.70;99.90
16158;DHT22;8184;60.256;18.694;2023-06-19T01:24:16;15.80;99.90
16158;DHT22;8184;60.256;18.694;2023-06-19T01:26:45;15.80;99.90
16158;DHT22;8184;60.256;18.694;2023-06-19T01:29:14;15.80;99.90
16158;DHT22;8184;60.256;18.694;2023-06-19T01:31:47;15.80;99.90
16158;DHT22;8184;60.256;18.694;2023-06-19T01:34:18;15.80;99.90
16158;DHT22;8184;60.256;18.694;2023-06-19T01:36:48;15.80;99.90
16158;DHT22;8184;60.256;18.694;2023-06-19T01:39:19;15.90;99.90
16158;DHT22;8184;60.256;18.694;2023-06-19T01:41:47;15.80;99.90
16158;DHT22;8184;60.256;18.694;2023-06-19T01:44:16;15.80;99.90
16158;DHT22;8184;60.256;18.694;2023-06-19T01:46:46;15.90;99.90
16158;DHT22;8184;60.256;18.694;2023-06-19T01:49:15;15.90;99.90
16158;DHT22;8184;60.256;18.694;2023-06-19T01:51:43;15.80;99.90
16158;DHT22;8184;60.256;18.694;2023-06-19T01:54:12;15.90;99.90
16158;DHT22;8184;60.256;18.694;2023-06-19T01:56:44;15.90;99.90
16158;DHT22;8184;60.256;18.694;2023-06-19T01:59:13;15.90;99.90
16158;DHT22;8184;60.256;18.694;2023-06-19T02:01:44;16.00;99.90
16158;DHT22;8184;60.256;18.694;2023-06-19T02:04:13;16.00;99.90
16158;DHT22;8184;60.256;18.694;2023-06-19T02:06:41;16.00;99.90
16158;DHT22;8184;60.256;18.694;2023-06-19T02:09:09;16.10;99.90
16158;DHT22;8184;60.256;18.694;2023-06-19T02:11:38;16.00;99.90
16158;DHT22;8184;60.256;18.694;2023-06-19T02:14:10;15.90;99.90
16158;DHT22;8184;60.256;18.694;2023-06-19T02:16:38;15.90;99.90
16158;DHT22;8184;60.256;18.694;2023-06-19T02:19:10;15.90;99.90
16158;DHT22;8184;60.256;18.694;2023-06-19T02:21:41;16.00;99.90
16158;DHT22;8184;60.256;18.694;2023-06-19T02:24:10;16.10;99.90
16158;DHT22;8184;60.256;18.694;2023-06-19T02:26:38;16.00;99.90
16158;DHT22;8184;60.256;18.694;2023-06-19T02:29:06;15.90;99.90
16158;DHT22;8184;60.256;18.694;2023-06-19T02:31:36;16.00;99.90
16158;DHT22;8184;60.256;18.694;2023-06-19T02:34:04;16.00;99.90
16158;DHT22;8184;60.256;18.694;2023-06-19T02:36:33;16.00;99.90
16158;DHT22;8184;60.256;18.694;2023-06-19T02:39:03;16.10;99.90
16158;DHT22;8184;60.256;18.694;2023-06-19T02:41:31;16.00;99.90
16158;DHT22;8184;60.256;18.694;2023-06-19T02:44:00;16.00;99.90
16158;DHT22;8184;60.256;18.694;2023-06-19T02:46:28;16.00;99.90
16158;DHT22;8184;60.256;18.694;2023-06-19T02:48:58;16.00;99.90
16158;DHT22;8184;60.256;18.694;2023-06-19T02:51:27;16.00;99.90
16158;DHT22;8184;60.256;18.694;2023-06-19T02:53:56;16.00;99.90
16158;DHT22;8184;60.256;18.694;2023-06-19T02:56:27;16.10;99.90
16158;DHT22;8184;60.256;18.694;2023-06-19T02:58:55;16.20;99.90
16158;DHT22;8184;60.256;18.694;2023-06-19T03:01:24;16.20;99.90
16158;DHT22;8184;60.256;18.694;2023-06-19T03:03:52;16.20;99.90
16158;DHT22;8184;60.256;18.694;2023-06-19T03:06:22;16.20;99.90
16158;DHT22;8184;60.256;18.694;2023-06-19T03:08:50;16.20;99.90
16158;DHT22;8184;60.256;18.694;2023-06-19T03:11:19;16.20;99.90
16158;DHT22;8184;60.256;18.694;2023-06-19T03:13:48;16.30;99.90
16158;DHT22;8184;60.256;18.694;2023-06-19T03:16:16;16.30;99.90
16158;DHT22;8184;60.256;18.694;2023-06-19T03:18:45;16.30;99.90
16158;DHT22;8184;60.256;18.694;2023-06-19T03:21:17;16.30;99.90
16158;DHT22;8184;60.256;18.694;2023-06-19T03:23:48;16.40;99.90
16158;DHT22;8184;60.256;18.694;2023-06-19T03:26:20;16.40;99.90
16158;DHT22;8184;60.256;18.694;2023-06-19T03:28:48;16.30;99.90
16158;DHT22;8184;60.256;18.694;2023-06-19T03:31:17;16.50;99.90
16158;DHT22;8184;60.256;18.694;2023-06-19T03:33:45;16.50;99.90
16158;DHT22;8184;60.256;18.694;2023-06-19T03:36:13;16.50;99.90
16158;DHT22;8184;60.256;18.694;2023-06-19T03:38:42;16.30;99.90
16158;DHT22;8184;60.256;18.694;2023-06-19T03:41:17;16.30;99.90
16158;DHT22;8184;60.256;18.694;2023-06-19T03:43:45;16.50;99.90
16158;DHT22;8184;60.256;18.694;2023-06-19T03:46:14;16.20;99.90
16158;DHT22;8184;60.256;18.694;2023-06-19T03:48:42;16.20;99.90
16158;DHT22;8184;60.256;18.694;2023-06-19T03:51:14;16.20;99.90
16158;DHT22;8184;60.256;18.694;2023-06-19T03:53:42;16.10;99.90
16158;DHT22;8184;60.256;18.694;2023-06-19T03:56:10;16.10;99.90
16158;DHT22;8184;60.256;18.694;2023-06-19T03:58:40;16.20;99.90
16158;DHT22;8184;60.256;18.694;2023-06-19T04:01:09;16.30;99.90
16158;DHT22;8184;60.256;18.694;2023-06-19T04:03:37;16.30;99.90
16158;DHT22;8184;60.256;18.694;2023-06-19T04:06:07;16.40;99.90
16158;DHT22;8184;60.256;18.694;2023-06-19T04:08:36;16.30;99.90
16158;DHT22;8184;60.256;18.694;2023-06-19T04:11:04;16.40;99.90
16158;DHT22;8184;60.256;18.694;2023-06-19T04:13:32;16.40;99.90
16158;DHT22;8184;60.256;18.694;2023-06-19T04:16:02;16.40;99.90
16158;DHT22;8184;60.256;18.694;2023-06-19T04:18:31;16.40;99.90
16158;DHT22;8184;60.256;18.694;2023-06-19T04:21:00;16.40;99.90
16158;DHT22;8184;60.256;18.694;2023-06-19T04:23:28;16.40;99.90
16158;DHT22;8184;60.256;18.694;2023-06-19T04:25:56;17.50;99.90
16158;DHT22;8184;60.256;18.694;2023-06-19T04:28:25;16.40;99.90
16158;DHT22;8184;60.256;18.694;2023-06-19T04:30:54;16.40;99.90
16158;DHT22;8184;60.256;18.694;2023-06-19T04:33:28;16.30;99.90
16158;DHT22;8184;60.256;18.694;2023-06-19T04:35:57;16.40;99.90
16158;DHT22;8184;60.256;18.694;2023-06-19T04:38:25;16.40;99.90
16158;DHT22;8184;60.256;18.694;2023-06-19T04:40:53;16.30;99.90
16158;DHT22;8184;60.256;18.694;2023-06-19T04:43:21;16.30;99.90
16158;DHT22;8184;60.256;18.694;2023-06-19T04:45:51;16.30;99.90
16158;DHT22;8184;60.256;18.694;2023-06-19T04:48:20;16.40;99.90
16158;DHT22;8184;60.256;18.694;2023-06-19T04:50:53;16.40;99.90
16158;DHT22;8184;60.256;18.694;2023-06-19T04:53:23;16.30;99.90
16158;DHT22;8184;60.256;18.694;2023-06-19T04:55:56;16.30;99.90
16158;DHT22;8184;60.256;18.694;2023-06-19T04:58:28;16.40;99.90
16158;DHT22;8184;60.256;18.694;2023-06-19T05:00:56;16.50;99.90
16158;DHT22;8184;60.256;18.694;2023-06-19T05:03:24;16.50;99.90
16158;DHT22;8184;60.256;18.694;2023-06-19T05:05:54;16.50;99.90
16158;DHT22;8184;60.256;18.694;2023-06-19T05:08:22;16.50;99.90
16158;DHT22;8184;60.256;18.694;2023-06-19T05:10:51;16.50;99.90
16158;DHT22;8184;60.256;18.694;2023-06-19T05:13:20;16.50;99.90
16158;DHT22;8184;60.256;18.694;2023-06-19T05:15:48;17.20;99.90
16158;DHT22;8184;60.256;18.694;2023-06-19T05:18:18;16.60;99.90
16158;DHT22;8184;60.256;18.694;2023-06-19T05:20:47;16.50;99.90
16158;DHT22;8184;60.256;18.694;2023-06-19T05:23:16;16.40;99.90
16158;DHT22;8184;60.256;18.694;2023-06-19T05:25:45;16.60;99.90
16158;DHT22;8184;60.256;18.694;2023-06-19T05:28:13;16.60;99.90
16158;DHT22;8184;60.256;18.694;2023-06-19T05:30:42;16.50;99.90
16158;DHT22;8184;60.256;18.694;2023-06-19T05:33:11;16.70;99.90
16158;DHT22;8184;60.256;18.694;2023-06-19T05:35:47;16.60;99.90
16158;DHT22;8184;60.256;18.694;2023-06-19T05:38:23;16.60;99.90
16158;DHT22;8184;60.256;18.694;2023-06-19T05:40:53;16.60;99.90
16158;DHT22;8184;60.256;18.694;2023-06-19T05:43:22;16.60;99.90
16158;DHT22;8184;60.256;18.694;2023-06-19T05:45:51;16.70;99.90
16158;DHT22;8184;60.256;18.694;2023-06-19T05:48:20;16.80;99.90
16158;DHT22;8184;60.256;18.694;2023-06-19T05:50:48;16.90;99.90
16158;DHT22;8184;60.256;18.694;2023-06-19T05:53:17;17.00;99.90
16158;DHT22;8184;60.256;18.694;2023-06-19T05:55:47;17.20;99.90
16158;DHT22;8184;60.256;18.694;2023-06-19T05:58:16;17.30;99.90
16158;DHT22;8184;60.256;18.694;2023-06-19T06:00:46;17.30;99.90
16158;DHT22;8184;60.256;18.694;2023-06-19T06:03:15;17.30;99.90
16158;DHT22;8184;60.256;18.694;2023-06-19T06:05:43;17.30;99.90
16158;DHT22;8184;60.256;18.694;2023-06-19T06:08:15;17.10;99.90
16158;DHT22;8184;60.256;18.694;2023-06-19T06:10:44;17.00;99.90
16158;DHT22;8184;60.256;18.694;2023-06-19T06:13:15;17.20;99.90
16158;DHT22;8184;60.256;18.694;2023-06-19T06:15:43;17.00;99.90
16158;DHT22;8184;60.256;18.694;2023-06-19T06:18:12;17.00;99.90
16158;DHT22;8184;60.256;18.694;2023-06-19T06:20:40;17.40;99.90
16158;DHT22;8184;60.256;18.694;2023-06-19T06:23:08;17.60;99.90
16158;DHT22;8184;60.256;18.694;2023-06-19T06:25:37;17.80;99.90
16158;DHT22;8184;60.256;18.694;2023-06-19T06:28:05;17.60;99.90
16158;DHT22;8184;60.256;18.694;2023-06-19T06:30:35;17.50;99.90
16158;DHT22;8184;60.256;18.694;2023-06-19T06:33:14;17.60;99.90
16158;DHT22;8184;60.256;18.694;2023-06-19T06:35:43;17.60;99.90
16158;DHT22;8184;60.256;18.694;2023-06-19T06:38:11;17.40;99.90
16158;DHT22;8184;60.256;18.694;2023-06-19T06:40:40;17.40;99.90
16158;DHT22;8184;60.256;18.694;2023-06-19T06:43:10;17.60;99.90
16158;DHT22;8184;60.256;18.694;2023-06-19T06:45:39;17.70;99.90
16158;DHT22;8184;60.256;18.694;2023-06-19T06:48:09;17.80;99.90
16158;DHT22;8184;60.256;18.694;2023-06-19T06:50:37;17.90;99.90
16158;DHT22;8184;60.256;18.694;2023-06-19T06:53:06;17.80;99.90
16158;DHT22;8184;60.256;18.694;2023-06-19T06:55:35;17.80;99.90
16158;DHT22;8184;60.256;18.694;2023-06-19T06:58:03;17.80;99.90
16158;DHT22;8184;60.256;18.694;2023-06-19T07:00:32;17.40;99.90
16158;DHT22;8184;60.256;18.694;2023-06-19T07:03:02;17.40;99.90
16158;DHT22;8184;60.256;18.694;2023-06-19T07:05:31;17.70;99.90
16158;DHT22;8184;60.256;18.694;2023-06-19T07:07:59;17.70;99.90
16158;DHT22;8184;60.256;18.694;2023-06-19T07:10:28;17.50;99.90
16158;DHT22;8184;60.256;18.694;2023-06-19T07:12:56;17.50;99.90
16158;DHT22;8184;60.256;18.694;2023-06-19T07:15:24;17.30;99.90
16158;DHT22;8184;60.256;18.694;2023-06-19T07:17:53;17.10;99.90
16158;DHT22;8184;60.256;18.694;2023-06-19T07:20:23;17.10;99.90
16158;DHT22;8184;60.256;18.694;2023-06-19T07:22:51;17.00;99.90
16158;DHT22;8184;60.256;18.694;2023-06-19T07:25:23;16.90;99.90
16158;DHT22;8184;60.256;18.694;2023-06-19T07:27:52;17.50;99.90
16158;DHT22;8184;60.256;18.694;2023-06-19T07:30:20;16.80;99.90
16158;DHT22;8184;60.256;18.694;2023-06-19T07:32:49;17.00;99.90
16158;DHT22;8184;60.256;18.694;2023-06-19T07:35:18;17.00;99.90
16158;DHT22;8184;60.256;18.694;2023-06-19T07:37:48;17.20;99.90
16158;DHT22;8184;60.256;18.694;2023-06-19T07:40:16;17.40;99.90
16158;DHT22;8184;60.256;18.694;2023-06-19T07:42:45;17.60;99.90
16158;DHT22;8184;60.256;18.694;2023-06-19T07:45:13;17.60;99.90
16158;DHT22;8184;60.256;18.694;2023-06-19T07:47:41;17.60;99.90
16158;DHT22;8184;60.256;18.694;2023-06-19T07:50:10;17.50;99.90
16158;DHT22;8184;60.256;18.694;2023-06-19T07:52:38;17.50;99.90
16158;DHT22;8184;60.256;18.694;2023-06-19T07:55:08;17.40;99.90
16158;DHT22;8184;60.256;18.694;2023-06-19T07:57:37;17.50;99.90
16158;DHT22;8184;60.256;18.694;2023-06-19T08:00:05;17.60;99.90
16158;DHT22;8184;60.256;18.694;2023-06-19T08:02:38;17.60;99.90
16158;DHT22;8184;60.256;18.694;2023-06-19T08:05:07;17.50;99.90
16158;DHT22;8184;60.256;18.694;2023-06-19T08:07:36;17.40;99.90
16158;DHT22;8184;60.256;18.694;2023-06-19T08:10:05;17.30;99.90
16158;DHT22;8184;60.256;18.694;2023-06-19T08:12:42;17.50;99.90
16158;DHT22;8184;60.256;18.694;2023-06-19T08:15:10;17.40;99.90
16158;DHT22;8184;60.256;18.694;2023-06-19T08:17:40;17.30;99.90
16158;DHT22;8184;60.256;18.694;2023-06-19T08:20:09;17.30;99.90
16158;DHT22;8184;60.256;18.694;2023-06-19T08:22:37;17.30;99.90
16158;DHT22;8184;60.256;18.694;2023-06-19T08:25:10;17.40;99.90
16158;DHT22;8184;60.256;18.694;2023-06-19T08:27:38;17.40;99.90
16158;DHT22;8184;60.256;18.694;2023-06-19T08:30:08;17.50;99.90
16158;DHT22;8184;60.256;18.694;2023-06-19T08:32:36;17.70;99.90
16158;DHT22;8184;60.256;18.694;2023-06-19T08:35:05;17.60;99.90
16158;DHT22;8184;60.256;18.694;2023-06-19T08:37:36;17.40;99.90
16158;DHT22;8184;60.256;18.694;2023-06-19T08:40:05;17.50;99.90
16158;DHT22;8184;60.256;18.694;2023-06-19T08:42:36;17.60;99.90
16158;DHT22;8184;60.256;18.694;2023-06-19T08:45:08;17.60;99.90
16158;DHT22;8184;60.256;18.694;2023-06-19T08:47:36;17.60;99.90
16158;DHT22;8184;60.256;18.694;2023-06-19T08:50:05;17.60;99.90
16158;DHT22;8184;60.256;18.694;2023-06-19T08:52:39;17.80;99.90
16158;DHT22;8184;60.256;18.694;2023-06-19T08:55:10;17.90;99.90
16158;DHT22;8184;60.256;18.694;2023-06-19T08:57:39;17.80;99.90
16158;DHT22;8184;60.256;18.694;2023-06-19T09:00:09;17.90;99.90
16158;DHT22;8184;60.256;18.694;2023-06-19T09:02:41;17.80;99.90
16158;DHT22;8184;60.256;18.694;2023-06-19T09:05:11;17.90;99.90
16158;DHT22;8184;60.256;18.694;2023-06-19T09:07:40;18.00;99.90
16158;DHT22;8184;60.256;18.694;2023-06-19T09:10:13;18.10;99.90
16158;DHT22;8184;60.256;18.694;2023-06-19T09:12:41;18.10;99.90
16158;DHT22;8184;60.256;18.694;2023-06-19T09:15:12;18.00;99.90
16158;DHT22;8184;60.256;18.694;2023-06-19T09:17:44;17.80;99.90
16158;DHT22;8184;60.256;18.694;2023-06-19T09:20:12;17.90;99.90
16158;DHT22;8184;60.256;18.694;2023-06-19T09:22:41;18.20;99.90
16158;DHT22;8184;60.256;18.694;2023-06-19T09:25:09;18.30;99.90
16158;DHT22;8184;60.256;18.694;2023-06-19T09:27:40;18.00;99.90
16158;DHT22;8184;60.256;18.694;2023-06-19T09:30:14;18.00;99.90
16158;DHT22;8184;60.256;18.694;2023-06-19T09:32:44;17.90;99.90
16158;DHT22;8184;60.256;18.694;2023-06-19T09:35:12;18.00;99.90
16158;DHT22;8184;60.256;18.694;2023-06-19T09:37:44;17.80;99.90
16158;DHT22;8184;60.256;18.694;2023-06-19T09:40:13;17.70;99.90
16158;DHT22;8184;60.256;18.694;2023-06-19T09:42:42;17.80;99.90
16158;DHT22;8184;60.256;18.694;2023-06-19T09:45:11;17.70;99.90
16158;DHT22;8184;60.256;18.694;2023-06-19T09:47:44;17.90;99.90
16158;DHT22;8184;60.256;18.694;2023-06-19T09:50:16;18.00;99.90
16158;DHT22;8184;60.256;18.694;2023-06-19T09:52:45;18.00;99.90
16158;DHT22;8184;60.256;18.694;2023-06-19T09:55:13;18.10;99.90
16158;DHT22;8184;60.256;18.694;2023-06-19T09:57:42;18.10;99.90
16158;DHT22;8184;60.256;18.694;2023-06-19T10:00:12;18.40;99.90
16158;DHT22;8184;60.256;18.694;2023-06-19T10:02:45;18.60;99.90
16158;DHT22;8184;60.256;18.694;2023-06-19T10:05:13;18.80;99.90
16158;DHT22;8184;60.256;18.694;2023-06-19T10:07:42;18.90;99.90
16158;DHT22;8184;60.256;18.694;2023-06-19T10:10:11;18.70;99.90
16158;DHT22;8184;60.256;18.694;2023-06-19T10:12:40;18.80;99.90
16158;DHT22;8184;60.256;18.694;2023-06-19T10:15:13;19.30;99.90
16158;DHT22;8184;60.256;18.694;2023-06-19T10:17:45;19.30;99.90
16158;DHT22;8184;60.256;18.694;2023-06-19T10:23:13;20.00;99.90
16158;DHT22;8184;60.256;18.694;2023-06-19T10:25:47;19.60;99.90
16158;DHT22;8184;60.256;18.694;2023-06-19T10:28:16;19.10;99.90
16158;DHT22;8184;60.256;18.694;2023-06-19T10:30:44;19.50;99.90
16158;DHT22;8184;60.256;18.694;2023-06-19T10:33:15;19.40;99.90
16158;DHT22;8184;60.256;18.694;2023-06-19T10:35:43;19.20;99.90
16158;DHT22;8184;60.256;18.694;2023-06-19T10:38:14;19.30;99.90
16158;DHT22;8184;60.256;18.694;2023-06-19T10:40:42;19.00;99.90
16158;DHT22;8184;60.256;18.694;2023-06-19T10:43:11;18.60;99.90
16158;DHT22;8184;60.256;18.694;2023-06-19T10:45:40;18.80;99.90
16158;DHT22;8184;60.256;18.694;2023-06-19T10:48:08;19.30;99.90
16158;DHT22;8184;60.256;18.694;2023-06-19T10:50:38;19.80;99.90
16158;DHT22;8184;60.256;18.694;2023-06-19T10:53:10;20.10;99.90
16158;DHT22;8184;60.256;18.694;2023-06-19T10:55:38;19.90;99.90
16158;DHT22;8184;60.256;18.694;2023-06-19T10:58:06;19.70;99.90
16158;DHT22;8184;60.256;18.694;2023-06-19T11:00:35;19.80;99.90
16158;DHT22;8184;60.256;18.694;2023-06-19T11:03:03;19.70;99.90
16158;DHT22;8184;60.256;18.694;2023-06-19T11:05:35;19.40;99.90
16158;DHT22;8184;60.256;18.694;2023-06-19T11:08:05;19.30;99.90
16158;DHT22;8184;60.256;18.694;2023-06-19T11:10:33;19.30;99.90
16158;DHT22;8184;60.256;18.694;2023-06-19T11:13:03;19.50;99.90
16158;DHT22;8184;60.256;18.694;2023-06-19T11:15:34;19.70;99.90
16158;DHT22;8184;60.256;18.694;2023-06-19T11:18:02;19.70;99.90
16158;DHT22;8184;60.256;18.694;2023-06-19T11:20:42;19.90;99.90
16158;DHT22;8184;60.256;18.694;2023-06-19T11:23:12;20.10;99.90
16158;DHT22;8184;60.256;18.694;2023-06-19T11:25:41;19.90;99.90
16158;DHT22;8184;60.256;18.694;2023-06-19T11:28:13;19.80;99.90
16158;DHT22;8184;60.256;18.694;2023-06-19T11:30:41;19.60;99.90
16158;DHT22;8184;60.256;18.694;2023-06-19T11:33:17;19.20;99.90
16158;DHT22;8184;60.256;18.694;2023-06-19T11:35:49;19.60;99.90
16158;DHT22;8184;60.256;18.694;2023-06-19T11:38:20;20.10;99.90
16158;DHT22;8184;60.256;18.694;2023-06-19T11:40:51;20.50;99.90
16158;DHT22;8184;60.256;18.694;2023-06-19T11:43:26;20.60;99.90
16158;DHT22;8184;60.256;18.694;2023-06-19T11:45:59;20.70;99.90
16158;DHT22;8184;60.256;18.694;2023-06-19T11:48:29;21.00;99.90
16158;DHT22;8184;60.256;18.694;2023-06-19T11:50:58;20.90;99.90
16158;DHT22;8184;60.256;18.694;2023-06-19T11:53:28;21.00;99.90
16158;DHT22;8184;60.256;18.694;2023-06-19T11:55:56;19.90;99.90
16158;DHT22;8184;60.256;18.694;2023-06-19T11:58:25;19.60;99.90
16158;DHT22;8184;60.256;18.694;2023-06-19T12:00:53;19.80;99.90
16158;DHT22;8184;60.256;18.694;2023-06-19T12:03:24;20.00;99.90
16158;DHT22;8184;60.256;18.694;2023-06-19T12:05:54;20.20;99.90
16158;DHT22;8184;60.256;18.694;2023-06-19T12:08:22;19.80;99.90
16158;DHT22;8184;60.256;18.694;2023-06-19T12:10:53;19.80;99.90
16158;DHT22;8184;60.256;18.694;2023-06-19T12:13:21;19.30;99.90
16158;DHT22;8184;60.256;18.694;2023-06-19T12:15:49;19.30;99.90
16158;DHT22;8184;60.256;18.694;2023-06-19T12:18:20;19.60;99.90
16158;DHT22;8184;60.256;18.694;2023-06-19T12:20:49;20.00;99.90
16158;DHT22;8184;60.256;18.694;2023-06-19T12:23:20;20.00;99.90
16158;DHT22;8184;60.256;18.694;2023-06-19T12:25:48;19.50;99.90
16158;DHT22;8184;60.256;18.694;2023-06-19T12:28:18;19.70;99.90
16158;DHT22;8184;60.256;18.694;2023-06-19T12:30:47;19.80;99.90
16158;DHT22;8184;60.256;18.694;2023-06-19T12:33:18;19.80;99.90
16158;DHT22;8184;60.256;18.694;2023-06-19T12:35:47;19.70;99.90
16158;DHT22;8184;60.256;18.694;2023-06-19T12:38:16;19.90;99.90
16158;DHT22;8184;60.256;18.694;2023-06-19T12:40:45;19.90;99.90
16158;DHT22;8184;60.256;18.694;2023-06-19T12:43:13;19.60;99.90
16158;DHT22;8184;60.256;18.694;2023-06-19T12:45:43;20.20;99.90
16158;DHT22;8184;60.256;18.694;2023-06-19T12:48:11;20.90;99.90
16158;DHT22;8184;60.256;18.694;2023-06-19T12:50:45;20.60;99.90
16158;DHT22;8184;60.256;18.694;2023-06-19T12:53:13;21.30;99.90
16158;DHT22;8184;60.256;18.694;2023-06-19T12:55:41;21.40;99.90
16158;DHT22;8184;60.256;18.694;2023-06-19T12:58:26;21.10;99.90
16158;DHT22;8184;60.256;18.694;2023-06-19T13:00:57;21.20;99.90
16158;DHT22;8184;60.256;18.694;2023-06-19T13:03:25;21.10;99.90
16158;DHT22;8184;60.256;18.694;2023-06-19T13:05:54;21.10;99.90
16158;DHT22;8184;60.256;18.694;2023-06-19T13:08:22;20.90;99.90
16158;DHT22;8184;60.256;18.694;2023-06-19T13:10:51;21.10;99.90
16158;DHT22;8184;60.256;18.694;2023-06-19T13:13:22;20.60;99.90
16158;DHT22;8184;60.256;18.694;2023-06-19T13:15:53;20.60;99.90
16158;DHT22;8184;60.256;18.694;2023-06-19T13:18:23;20.90;99.90
16158;DHT22;8184;60.256;18.694;2023-06-19T13:20:54;21.00;99.90
16158;DHT22;8184;60.256;18.694;2023-06-19T13:23:23;20.80;99.90
16158;DHT22;8184;60.256;18.694;2023-06-19T13:25:52;20.70;99.90
16158;DHT22;8184;60.256;18.694;2023-06-19T13:28:22;21.00;99.90
16158;DHT22;8184;60.256;18.694;2023-06-19T13:30:51;20.60;99.90
16158;DHT22;8184;60.256;18.694;2023-06-19T13:33:19;20.20;99.90
16158;DHT22;8184;60.256;18.694;2023-06-19T13:35:50;20.20;99.90
16158;DHT22;8184;60.256;18.694;2023-06-19T13:38:19;20.10;99.90
16158;DHT22;8184;60.256;18.694;2023-06-19T13:40:51;20.30;99.90
16158;DHT22;8184;60.256;18.694;2023-06-19T13:43:22;20.00;99.90
16158;DHT22;8184;60.256;18.694;2023-06-19T13:45:57;20.40;99.90
16158;DHT22;8184;60.256;18.694;2023-06-19T13:48:27;20.60;99.90
16158;DHT22;8184;60.256;18.694;2023-06-19T13:50:57;20.40;99.90
16158;DHT22;8184;60.256;18.694;2023-06-19T13:53:26;20.80;99.90
16158;DHT22;8184;60.256;18.694;2023-06-19T13:55:58;20.30;99.90
16158;DHT22;8184;60.256;18.694;2023-06-19T13:58:33;20.60;99.90
16158;DHT22;8184;60.256;18.694;2023-06-19T14:01:02;20.60;99.90
16158;DHT22;8184;60.256;18.694;2023-06-19T14:03:30;20.70;99.90
16158;DHT22;8184;60.256;18.694;2023-06-19T14:06:00;20.60;99.90
16158;DHT22;8184;60.256;18.694;2023-06-19T14:08:28;20.40;99.90
16158;DHT22;8184;60.256;18.694;2023-06-19T14:11:00;20.10;99.90
16158;DHT22;8184;60.256;18.694;2023-06-19T14:13:29;20.10;99.90
16158;DHT22;8184;60.256;18.694;2023-06-19T14:15:57;20.10;99.90
16158;DHT22;8184;60.256;18.694;2023-06-19T14:18:26;20.00;99.90
16158;DHT22;8184;60.256;18.694;2023-06-19T14:20:54;19.90;99.90
16158;DHT22;8184;60.256;18.694;2023-06-19T14:23:23;19.60;99.90
16158;DHT22;8184;60.256;18.694;2023-06-19T14:25:52;19.20;99.90
16158;DHT22;8184;60.256;18.694;2023-06-19T14:28:20;19.50;99.90
16158;DHT22;8184;60.256;18.694;2023-06-19T14:30:49;19.70;99.90
16158;DHT22;8184;60.256;18.694;2023-06-19T14:33:17;19.20;99.90
16158;DHT22;8184;60.256;18.694;2023-06-19T14:35:46;19.20;99.90
16158;DHT22;8184;60.256;18.694;2023-06-19T14:38:17;19.10;99.90
16158;DHT22;8184;60.256;18.694;2023-06-19T14:40:47;19.00;99.90
16158;DHT22;8184;60.256;18.694;2023-06-19T14:43:16;18.90;99.90
16158;DHT22;8184;60.256;18.694;2023-06-19T14:45:47;19.30;99.90
16158;DHT22;8184;60.256;18.694;2023-06-19T14:48:19;19.70;99.90
16158;DHT22;8184;60.256;18.694;2023-06-19T14:50:49;19.50;99.90
16158;DHT22;8184;60.256;18.694;2023-06-19T14:53:17;19.70;99.90
16158;DHT22;8184;60.256;18.694;2023-06-19T14:55:45;19.80;99.90
16158;DHT22;8184;60.256;18.694;2023-06-19T14:58:15;19.30;99.90
16158;DHT22;8184;60.256;18.694;2023-06-19T15:00:44;19.40;99.90
16158;DHT22;8184;60.256;18.694;2023-06-19T15:03:12;19.40;99.90
16158;DHT22;8184;60.256;18.694;2023-06-19T15:05:40;19.10;99.90
16158;DHT22;8184;60.256;18.694;2023-06-19T15:08:09;19.40;99.90
16158;DHT22;8184;60.256;18.694;2023-06-19T15:10:37;19.40;99.90
16158;DHT22;8184;60.256;18.694;2023-06-19T15:13:06;19.30;99.90
16158;DHT22;8184;60.256;18.694;2023-06-19T15:15:36;19.60;99.90
16158;DHT22;8184;60.256;18.694;2023-06-19T15:18:06;19.50;99.90
16158;DHT22;8184;60.256;18.694;2023-06-19T15:20:34;19.40;99.90
16158;DHT22;8184;60.256;18.694;2023-06-19T15:23:04;19.30;99.90
16158;DHT22;8184;60.256;18.694;2023-06-19T15:25:33;19.40;99.90
16158;DHT22;8184;60.256;18.694;2023-06-19T15:28:01;19.00;99.90
16158;DHT22;8184;60.256;18.694;2023-06-19T15:30:29;19.30;99.90
16158;DHT22;8184;60.256;18.694;2023-06-19T15:32:59;19.30;99.90
16158;DHT22;8184;60.256;18.694;2023-06-19T15:35:27;19.20;99.90
16158;DHT22;8184;60.256;18.694;2023-06-19T15:37:56;18.90;99.90
16158;DHT22;8184;60.256;18.694;2023-06-19T15:40:25;18.90;99.90
16158;DHT22;8184;60.256;18.694;2023-06-19T15:42:54;18.60;99.90
16158;DHT22;8184;60.256;18.694;2023-06-19T15:45:25;18.40;99.90
16158;DHT22;8184;60.256;18.694;2023-06-19T15:47:53;18.50;99.90